sensor_id;sensor_type;location;lat;lon;timestamp;P1;durP1;ratioP1;P2;durP2;ratioP2
12556;SDS011;6344;49.932;8.308;2022-09-27T00:01:09;1.53;;;1.40;;
12556;SDS011;6344;49.932;8.308;2022-09-27T00:03:38;1.53;;;1.43;;
12556;SDS011;6344;49.932;8.308;2022-09-27T00:06:06;1.70;;;1.60;;
12556;SDS011;6344;49.932;8.308;2022-09-27T00:08:36;1.50;;;1.40;;
12556;SDS011;6344;49.932;8.308;2022-09-27T00:11:03;1.57;;;1.47;;
12556;SDS011;6344;49.932;8.308;2022-09-27T00:13:33;1.30;;;1.10;;
12556;SDS011;6344;49.932;8.308;2022-09-27T00:16:00;2.53;;;1.30;;
12556;SDS011;6344;49.932;8.308;2022-09-27T00:18:29;1.50;;;1.30;;
12556;SDS011;6344;49.932;8.308;2022-09-27T00:21:04;1.33;;;1.23;;
12556;SDS011;6344;49.932;8.308;2022-09-27T00:23:32;1.53;;;1.43;;
12556;SDS011;6344;49.932;8.308;2022-09-27T00:26:00;1.20;;;1.10;;
12556;SDS011;6344;49.932;8.308;2022-09-27T00:28:26;1.50;;;1.40;;
12556;SDS011;6344;49.932;8.308;2022-09-27T00:30:53;1.73;;;1.40;;
12556;SDS011;6344;49.932;8.308;2022-09-27T00:33:20;1.83;;;1.40;;
12556;SDS011;6344;49.932;8.308;2022-09-27T00:35:47;1.20;;;1.10;;
12556;SDS011;6344;49.932;8.308;2022-09-27T00:38:15;2.67;;;1.60;;
12556;SDS011;6344;49.932;8.308;2022-09-27T00:40:42;1.37;;;1.27;;
12556;SDS011;6344;49.932;8.308;2022-09-27T00:43:12;1.30;;;1.20;;
12556;SDS011;6344;49.932;8.308;2022-09-27T00:45:43;1.40;;;1.30;;
12556;SDS011;6344;49.932;8.308;2022-09-27T00:48:13;1.20;;;1.10;;
12556;SDS011;6344;49.932;8.308;2022-09-27T00:50:42;1.43;;;1.33;;
12556;SDS011;6344;49.932;8.308;2022-09-27T00:53:13;1.60;;;1.50;;
12556;SDS011;6344;49.932;8.308;2022-09-27T00:55:48;1.63;;;1.30;;
12556;SDS011;6344;49.932;8.308;2022-09-27T00:58:17;2.47;;;1.90;;
12556;SDS011;6344;49.932;8.308;2022-09-27T01:00:48;1.50;;;1.30;;
12556;SDS011;6344;49.932;8.308;2022-09-27T01:03:21;1.80;;;1.50;;
12556;SDS011;6344;49.932;8.308;2022-09-27T01:05:53;2.13;;;1.43;;
12556;SDS011;6344;49.932;8.308;2022-09-27T01:08:22;2.27;;;1.37;;
12556;SDS011;6344;49.932;8.308;2022-09-27T01:10:51;1.80;;;1.70;;
12556;SDS011;6344;49.932;8.308;2022-09-27T01:13:26;4.93;;;1.70;;
12556;SDS011;6344;49.932;8.308;2022-09-27T01:16:00;2.30;;;1.60;;
12556;SDS011;6344;49.932;8.308;2022-09-27T01:18:33;1.70;;;1.33;;
12556;SDS011;6344;49.932;8.308;2022-09-27T01:21:19;1.90;;;1.50;;
12556;SDS011;6344;49.932;8.308;2022-09-27T01:24:16;1.73;;;1.63;;
12556;SDS011;6344;49.932;8.308;2022-09-27T01:30:16;2.67;;;1.70;;
12556;SDS011;6344;49.932;8.308;2022-09-27T01:32:47;2.80;;;1.97;;
12556;SDS011;6344;49.932;8.308;2022-09-27T01:35:20;2.90;;;2.20;;
12556;SDS011;6344;49.932;8.308;2022-09-27T01:37:55;5.73;;;2.50;;
12556;SDS011;6344;49.932;8.308;2022-09-27T01:40:34;2.03;;;1.83;;
12556;SDS011;6344;49.932;8.308;2022-09-27T01:43:07;2.50;;;2.20;;
12556;SDS011;6344;49.932;8.308;2022-09-27T01:45:41;2.50;;;2.03;;
12556;SDS011;6344;49.932;8.308;2022-09-27T01:48:14;2.70;;;2.50;;
12556;SDS011;6344;49.932;8.308;2022-09-27T01:50:45;3.43;;;2.17;;
12556;SDS011;6344;49.932;8.308;2022-09-27T01:53:17;3.43;;;2.40;;
12556;SDS011;6344;49.932;8.308;2022-09-27T01:55:47;2.40;;;2.00;;
12556;SDS011;6344;49.932;8.308;2022-09-27T01:58:16;3.50;;;2.80;;
12556;SDS011;6344;49.932;8.308;2022-09-27T02:00:49;5.20;;;2.50;;
12556;SDS011;6344;49.932;8.308;2022-09-27T02:03:19;1.80;;;1.70;;
12556;SDS011;6344;49.932;8.308;2022-09-27T02:05:51;6.03;;;2.40;;
12556;SDS011;6344;49.932;8.308;2022-09-27T02:08:22;3.97;;;2.77;;
12556;SDS011;6344;49.932;8.308;2022-09-27T02:10:55;3.03;;;2.73;;
12556;SDS011;6344;49.932;8.308;2022-09-27T02:13:26;1.70;;;1.60;;
12556;SDS011;6344;49.932;8.308;2022-09-27T02:16:03;2.23;;;1.93;;
12556;SDS011;6344;49.932;8.308;2022-09-27T02:18:41;2.80;;;2.50;;
12556;SDS011;6344;49.932;8.308;2022-09-27T02:21:17;2.80;;;2.20;;
12556;SDS011;6344;49.932;8.308;2022-09-27T02:23:46;2.50;;;1.87;;
12556;SDS011;6344;49.932;8.308;2022-09-27T02:26:18;2.90;;;2.00;;
12556;SDS011;6344;49.932;8.308;2022-09-27T02:28:49;2.50;;;2.30;;
12556;SDS011;6344;49.932;8.308;2022-09-27T02:31:23;3.80;;;2.57;;
12556;SDS011;6344;49.932;8.308;2022-09-27T02:33:51;1.73;;;1.63;;
12556;SDS011;6344;49.932;8.308;2022-09-27T02:36:21;2.07;;;1.90;;
12556;SDS011;6344;49.932;8.308;2022-09-27T02:38:48;2.90;;;1.97;;
12556;SDS011;6344;49.932;8.308;2022-09-27T02:41:15;2.27;;;2.07;;
12556;SDS011;6344;49.932;8.308;2022-09-27T02:43:43;5.53;;;2.40;;
12556;SDS011;6344;49.932;8.308;2022-09-27T02:46:17;3.40;;;2.27;;
12556;SDS011;6344;49.932;8.308;2022-09-27T02:49:00;3.17;;;1.90;;
12556;SDS011;6344;49.932;8.308;2022-09-27T02:51:43;1.60;;;1.27;;
12556;SDS011;6344;49.932;8.308;2022-09-27T02:54:20;3.80;;;2.27;;
12556;SDS011;6344;49.932;8.308;2022-09-27T02:56:57;2.80;;;1.90;;
12556;SDS011;6344;49.932;8.308;2022-09-27T02:59:34;2.63;;;2.43;;
12556;SDS011;6344;49.932;8.308;2022-09-27T03:02:12;3.10;;;1.90;;
12556;SDS011;6344;49.932;8.308;2022-09-27T03:04:44;3.87;;;2.13;;
12556;SDS011;6344;49.932;8.308;2022-09-27T03:07:13;2.33;;;2.03;;
12556;SDS011;6344;49.932;8.308;2022-09-27T03:09:42;2.90;;;2.20;;
12556;SDS011;6344;49.932;8.308;2022-09-27T03:12:12;1.87;;;1.50;;
12556;SDS011;6344;49.932;8.308;2022-09-27T03:14:39;2.03;;;1.80;;
12556;SDS011;6344;49.932;8.308;2022-09-27T03:17:06;1.70;;;1.60;;
12556;SDS011;6344;49.932;8.308;2022-09-27T03:19:34;1.30;;;1.10;;
12556;SDS011;6344;49.932;8.308;2022-09-27T03:22:01;2.20;;;2.00;;
12556;SDS011;6344;49.932;8.308;2022-09-27T03:24:27;1.23;;;1.13;;
12556;SDS011;6344;49.932;8.308;2022-09-27T03:26:54;1.37;;;1.27;;
12556;SDS011;6344;49.932;8.308;2022-09-27T03:29:21;1.10;;;1.00;;
12556;SDS011;6344;49.932;8.308;2022-09-27T03:31:47;1.60;;;1.17;;
12556;SDS011;6344;49.932;8.308;2022-09-27T03:34:14;1.20;;;1.10;;
12556;SDS011;6344;49.932;8.308;2022-09-27T03:36:42;1.30;;;1.10;;
12556;SDS011;6344;49.932;8.308;2022-09-27T03:39:09;1.20;;;1.10;;
12556;SDS011;6344;49.932;8.308;2022-09-27T03:41:36;1.20;;;1.00;;
12556;SDS011;6344;49.932;8.308;2022-09-27T03:44:03;2.30;;;1.20;;
12556;SDS011;6344;49.932;8.308;2022-09-27T03:46:29;1.40;;;1.30;;
12556;SDS011;6344;49.932;8.308;2022-09-27T03:48:56;1.20;;;0.97;;
12556;SDS011;6344;49.932;8.308;2022-09-27T03:51:23;1.07;;;0.97;;
12556;SDS011;6344;49.932;8.308;2022-09-27T03:53:51;1.97;;;1.13;;
12556;SDS011;6344;49.932;8.308;2022-09-27T03:56:18;1.20;;;1.10;;
12556;SDS011;6344;49.932;8.308;2022-09-27T03:58:44;1.10;;;0.90;;
12556;SDS011;6344;49.932;8.308;2022-09-27T04:01:11;1.23;;;0.93;;
12556;SDS011;6344;49.932;8.308;2022-09-27T04:03:38;1.80;;;1.00;;
12556;SDS011;6344;49.932;8.308;2022-09-27T04:06:05;1.20;;;1.10;;
12556;SDS011;6344;49.932;8.308;2022-09-27T04:08:32;1.10;;;0.90;;
12556;SDS011;6344;49.932;8.308;2022-09-27T04:11:00;1.10;;;0.90;;
12556;SDS011;6344;49.932;8.308;2022-09-27T04:13:27;1.40;;;1.00;;
12556;SDS011;6344;49.932;8.308;2022-09-27T04:15:54;1.20;;;1.00;;
12556;SDS011;6344;49.932;8.308;2022-09-27T04:18:21;1.37;;;1.27;;
12556;SDS011;6344;49.932;8.308;2022-09-27T04:20:47;1.70;;;0.90;;
12556;SDS011;6344;49.932;8.308;2022-09-27T04:23:14;1.10;;;1.00;;
12556;SDS011;6344;49.932;8.308;2022-09-27T04:25:41;1.63;;;1.10;;
12556;SDS011;6344;49.932;8.308;2022-09-27T04:28:09;1.10;;;1.00;;
12556;SDS011;6344;49.932;8.308;2022-09-27T04:30:36;1.53;;;1.20;;
12556;SDS011;6344;49.932;8.308;2022-09-27T04:33:03;1.40;;;1.10;;
12556;SDS011;6344;49.932;8.308;2022-09-27T04:35:29;1.40;;;1.10;;
12556;SDS011;6344;49.932;8.308;2022-09-27T04:38:14;1.30;;;1.20;;
12556;SDS011;6344;49.932;8.308;2022-09-27T04:40:40;1.20;;;1.00;;
12556;SDS011;6344;49.932;8.308;2022-09-27T04:43:10;2.23;;;1.27;;
12556;SDS011;6344;49.932;8.308;2022-09-27T04:45:37;1.83;;;1.43;;
12556;SDS011;6344;49.932;8.308;2022-09-27T04:48:03;1.40;;;1.30;;
12556;SDS011;6344;49.932;8.308;2022-09-27T04:50:30;3.83;;;1.40;;
12556;SDS011;6344;49.932;8.308;2022-09-27T04:52:57;1.70;;;1.40;;
12556;SDS011;6344;49.932;8.308;2022-09-27T04:55:24;1.50;;;1.40;;
12556;SDS011;6344;49.932;8.308;2022-09-27T04:57:51;1.30;;;1.20;;
12556;SDS011;6344;49.932;8.308;2022-09-27T05:00:20;1.60;;;1.27;;
12556;SDS011;6344;49.932;8.308;2022-09-27T05:02:46;1.70;;;1.50;;
12556;SDS011;6344;49.932;8.308;2022-09-27T05:05:13;1.40;;;1.20;;
12556;SDS011;6344;49.932;8.308;2022-09-27T05:07:40;1.17;;;1.07;;
12556;SDS011;6344;49.932;8.308;2022-09-27T05:10:07;2.90;;;1.40;;
12556;SDS011;6344;49.932;8.308;2022-09-27T05:12:35;1.90;;;1.30;;
12556;SDS011;6344;49.932;8.308;2022-09-27T05:15:02;1.40;;;1.30;;
12556;SDS011;6344;49.932;8.308;2022-09-27T05:17:31;1.50;;;1.40;;
12556;SDS011;6344;49.932;8.308;2022-09-27T05:19:58;1.53;;;1.43;;
12556;SDS011;6344;49.932;8.308;2022-09-27T05:22:24;1.30;;;1.20;;
12556;SDS011;6344;49.932;8.308;2022-09-27T05:24:51;1.80;;;1.70;;
12556;SDS011;6344;49.932;8.308;2022-09-27T05:27:18;1.50;;;1.40;;
12556;SDS011;6344;49.932;8.308;2022-09-27T05:29:45;1.90;;;1.30;;
12556;SDS011;6344;49.932;8.308;2022-09-27T05:32:12;1.87;;;1.47;;
12556;SDS011;6344;49.932;8.308;2022-09-27T05:34:40;1.53;;;1.43;;
12556;SDS011;6344;49.932;8.308;2022-09-27T05:37:07;1.50;;;1.40;;
12556;SDS011;6344;49.932;8.308;2022-09-27T05:39:34;1.53;;;1.43;;
12556;SDS011;6344;49.932;8.308;2022-09-27T05:42:01;2.37;;;1.23;;
12556;SDS011;6344;49.932;8.308;2022-09-27T05:44:28;1.70;;;1.60;;
12556;SDS011;6344;49.932;8.308;2022-09-27T05:46:56;3.77;;;1.50;;
12556;SDS011;6344;49.932;8.308;2022-09-27T05:49:22;3.70;;;3.07;;
12556;SDS011;6344;49.932;8.308;2022-09-27T05:51:50;1.50;;;1.40;;
12556;SDS011;6344;49.932;8.308;2022-09-27T05:54:17;2.20;;;1.33;;
12556;SDS011;6344;49.932;8.308;2022-09-27T05:56:44;1.67;;;1.20;;
12556;SDS011;6344;49.932;8.308;2022-09-27T05:59:10;1.93;;;1.80;;
12556;SDS011;6344;49.932;8.308;2022-09-27T06:01:37;1.70;;;1.47;;
12556;SDS011;6344;49.932;8.308;2022-09-27T06:04:04;1.87;;;1.37;;
12556;SDS011;6344;49.932;8.308;2022-09-27T06:06:31;1.50;;;1.23;;
12556;SDS011;6344;49.932;8.308;2022-09-27T06:09:02;1.30;;;1.20;;
12556;SDS011;6344;49.932;8.308;2022-09-27T06:11:28;1.37;;;1.27;;
12556;SDS011;6344;49.932;8.308;2022-09-27T06:13:55;1.40;;;1.30;;
12556;SDS011;6344;49.932;8.308;2022-09-27T06:16:22;1.00;;;0.90;;
12556;SDS011;6344;49.932;8.308;2022-09-27T06:18:49;1.10;;;1.00;;
12556;SDS011;6344;49.932;8.308;2022-09-27T06:21:16;2.93;;;1.50;;
12556;SDS011;6344;49.932;8.308;2022-09-27T06:23:42;1.50;;;1.40;;
12556;SDS011;6344;49.932;8.308;2022-09-27T06:26:10;2.03;;;1.10;;
12556;SDS011;6344;49.932;8.308;2022-09-27T06:28:37;1.50;;;1.27;;
12556;SDS011;6344;49.932;8.308;2022-09-27T06:31:04;1.40;;;1.30;;
12556;SDS011;6344;49.932;8.308;2022-09-27T06:33:33;1.73;;;1.13;;
12556;SDS011;6344;49.932;8.308;2022-09-27T06:36:00;1.80;;;1.03;;
12556;SDS011;6344;49.932;8.308;2022-09-27T06:38:28;1.30;;;1.17;;
12556;SDS011;6344;49.932;8.308;2022-09-27T06:40:54;1.17;;;1.07;;
12556;SDS011;6344;49.932;8.308;2022-09-27T06:43:24;1.10;;;1.00;;
12556;SDS011;6344;49.932;8.308;2022-09-27T06:45:51;1.73;;;1.07;;
12556;SDS011;6344;49.932;8.308;2022-09-27T06:48:18;1.07;;;0.97;;
12556;SDS011;6344;49.932;8.308;2022-09-27T06:50:46;1.40;;;1.07;;
12556;SDS011;6344;49.932;8.308;2022-09-27T06:53:14;1.27;;;0.97;;
12556;SDS011;6344;49.932;8.308;2022-09-27T06:55:41;1.10;;;1.00;;
12556;SDS011;6344;49.932;8.308;2022-09-27T06:58:09;1.30;;;1.00;;
12556;SDS011;6344;49.932;8.308;2022-09-27T07:00:56;1.87;;;1.10;;
12556;SDS011;6344;49.932;8.308;2022-09-27T07:03:23;1.20;;;0.90;;
12556;SDS011;6344;49.932;8.308;2022-09-27T07:05:56;1.60;;;1.50;;
12556;SDS011;6344;49.932;8.308;2022-09-27T07:08:25;1.10;;;1.00;;
12556;SDS011;6344;49.932;8.308;2022-09-27T07:10:52;2.27;;;1.30;;
12556;SDS011;6344;49.932;8.308;2022-09-27T07:13:19;1.13;;;1.00;;
12556;SDS011;6344;49.932;8.308;2022-09-27T07:15:46;3.60;;;1.10;;
12556;SDS011;6344;49.932;8.308;2022-09-27T07:18:15;1.13;;;1.00;;
12556;SDS011;6344;49.932;8.308;2022-09-27T07:20:41;3.60;;;1.37;;
12556;SDS011;6344;49.932;8.308;2022-09-27T07:23:09;1.73;;;1.10;;
12556;SDS011;6344;49.932;8.308;2022-09-27T07:25:36;1.30;;;1.07;;
12556;SDS011;6344;49.932;8.308;2022-09-27T07:28:03;1.80;;;1.33;;
12556;SDS011;6344;49.932;8.308;2022-09-27T07:30:32;1.30;;;1.20;;
12556;SDS011;6344;49.932;8.308;2022-09-27T07:33:00;1.30;;;1.00;;
12556;SDS011;6344;49.932;8.308;2022-09-27T07:35:29;2.10;;;1.20;;
12556;SDS011;6344;49.932;8.308;2022-09-27T07:37:56;1.93;;;1.27;;
12556;SDS011;6344;49.932;8.308;2022-09-27T07:40:24;2.30;;;1.10;;
12556;SDS011;6344;49.932;8.308;2022-09-27T07:42:54;1.10;;;1.00;;
12556;SDS011;6344;49.932;8.308;2022-09-27T07:45:21;2.30;;;1.50;;
12556;SDS011;6344;49.932;8.308;2022-09-27T07:47:48;3.83;;;1.30;;
12556;SDS011;6344;49.932;8.308;2022-09-27T07:50:15;1.40;;;1.30;;
12556;SDS011;6344;49.932;8.308;2022-09-27T07:52:45;1.33;;;1.23;;
12556;SDS011;6344;49.932;8.308;2022-09-27T07:55:14;4.07;;;1.10;;
12556;SDS011;6344;49.932;8.308;2022-09-27T07:57:41;1.33;;;1.00;;
12556;SDS011;6344;49.932;8.308;2022-09-27T08:00:09;1.40;;;1.10;;
12556;SDS011;6344;49.932;8.308;2022-09-27T08:02:38;2.20;;;1.00;;
12556;SDS011;6344;49.932;8.308;2022-09-27T08:05:06;1.90;;;1.13;;
12556;SDS011;6344;49.932;8.308;2022-09-27T08:07:33;2.23;;;1.77;;
12556;SDS011;6344;49.932;8.308;2022-09-27T08:10:01;1.20;;;1.10;;
12556;SDS011;6344;49.932;8.308;2022-09-27T08:12:28;1.10;;;1.00;;
12556;SDS011;6344;49.932;8.308;2022-09-27T08:14:55;1.17;;;1.00;;
12556;SDS011;6344;49.932;8.308;2022-09-27T08:17:25;1.77;;;1.10;;
12556;SDS011;6344;49.932;8.308;2022-09-27T08:19:52;1.87;;;1.00;;
12556;SDS011;6344;49.932;8.308;2022-09-27T08:22:19;1.87;;;1.20;;
12556;SDS011;6344;49.932;8.308;2022-09-27T08:24:46;1.30;;;1.20;;
12556;SDS011;6344;49.932;8.308;2022-09-27T08:27:15;1.30;;;1.10;;
12556;SDS011;6344;49.932;8.308;2022-09-27T08:29:42;3.40;;;1.20;;
12556;SDS011;6344;49.932;8.308;2022-09-27T08:32:08;1.80;;;1.10;;
12556;SDS011;6344;49.932;8.308;2022-09-27T08:34:36;1.30;;;1.20;;
12556;SDS011;6344;49.932;8.308;2022-09-27T08:37:03;1.40;;;1.00;;
12556;SDS011;6344;49.932;8.308;2022-09-27T08:39:30;1.57;;;1.20;;
12556;SDS011;6344;49.932;8.308;2022-09-27T08:41:59;1.53;;;1.30;;
12556;SDS011;6344;49.932;8.308;2022-09-27T08:44:33;1.37;;;1.17;;
12556;SDS011;6344;49.932;8.308;2022-09-27T08:47:09;1.40;;;1.10;;
12556;SDS011;6344;49.932;8.308;2022-09-27T08:49:40;1.53;;;1.10;;
12556;SDS011;6344;49.932;8.308;2022-09-27T08:52:14;1.30;;;0.97;;
12556;SDS011;6344;49.932;8.308;2022-09-27T08:54:44;1.70;;;1.13;;
12556;SDS011;6344;49.932;8.308;2022-09-27T08:57:12;1.10;;;1.00;;
12556;SDS011;6344;49.932;8.308;2022-09-27T08:59:42;1.30;;;1.00;;
12556;SDS011;6344;49.932;8.308;2022-09-27T09:02:16;1.10;;;1.00;;
12556;SDS011;6344;49.932;8.308;2022-09-27T09:04:44;1.27;;;1.10;;
12556;SDS011;6344;49.932;8.308;2022-09-27T09:07:22;1.10;;;0.90;;
12556;SDS011;6344;49.932;8.308;2022-09-27T09:10:02;1.73;;;1.10;;
12556;SDS011;6344;49.932;8.308;2022-09-27T09:12:40;1.13;;;1.03;;
12556;SDS011;6344;49.932;8.308;2022-09-27T09:15:19;1.20;;;1.00;;
12556;SDS011;6344;49.932;8.308;2022-09-27T09:18:00;1.40;;;1.30;;
12556;SDS011;6344;49.932;8.308;2022-09-27T09:20:45;1.30;;;1.03;;
12556;SDS011;6344;49.932;8.308;2022-09-27T09:23:30;1.27;;;1.10;;
12556;SDS011;6344;49.932;8.308;2022-09-27T09:26:08;1.30;;;1.10;;
12556;SDS011;6344;49.932;8.308;2022-09-27T09:28:44;1.20;;;1.00;;
12556;SDS011;6344;49.932;8.308;2022-09-27T09:31:26;1.60;;;1.00;;
12556;SDS011;6344;49.932;8.308;2022-09-27T09:34:00;2.00;;;1.03;;
12556;SDS011;6344;49.932;8.308;2022-09-27T09:36:36;1.20;;;1.03;;
12556;SDS011;6344;49.932;8.308;2022-09-27T09:39:09;1.30;;;1.00;;
12556;SDS011;6344;49.932;8.308;2022-09-27T09:41:40;2.23;;;1.20;;
12556;SDS011;6344;49.932;8.308;2022-09-27T09:44:13;1.30;;;0.93;;
12556;SDS011;6344;49.932;8.308;2022-09-27T09:46:45;1.83;;;1.10;;
12556;SDS011;6344;49.932;8.308;2022-09-27T09:49:16;1.10;;;1.00;;
12556;SDS011;6344;49.932;8.308;2022-09-27T09:51:47;2.20;;;0.90;;
12556;SDS011;6344;49.932;8.308;2022-09-27T09:54:18;5.40;;;1.10;;
12556;SDS011;6344;49.932;8.308;2022-09-27T09:56:54;1.47;;;1.00;;
12556;SDS011;6344;49.932;8.308;2022-09-27T09:59:25;1.53;;;1.00;;
12556;SDS011;6344;49.932;8.308;2022-09-27T10:01:58;1.30;;;1.10;;
12556;SDS011;6344;49.932;8.308;2022-09-27T10:04:39;1.20;;;1.10;;
12556;SDS011;6344;49.932;8.308;2022-09-27T10:07:06;2.47;;;1.00;;
12556;SDS011;6344;49.932;8.308;2022-09-27T10:09:34;1.20;;;0.97;;
12556;SDS011;6344;49.932;8.308;2022-09-27T10:12:01;2.33;;;1.00;;
12556;SDS011;6344;49.932;8.308;2022-09-27T10:14:28;1.00;;;0.90;;
12556;SDS011;6344;49.932;8.308;2022-09-27T10:16:56;1.10;;;1.00;;
12556;SDS011;6344;49.932;8.308;2022-09-27T10:19:27;1.03;;;0.80;;
12556;SDS011;6344;49.932;8.308;2022-09-27T10:21:57;1.30;;;1.20;;
12556;SDS011;6344;49.932;8.308;2022-09-27T10:24:27;2.20;;;1.10;;
12556;SDS011;6344;49.932;8.308;2022-09-27T10:26:56;1.20;;;1.10;;
12556;SDS011;6344;49.932;8.308;2022-09-27T10:29:28;1.20;;;1.03;;
12556;SDS011;6344;49.932;8.308;2022-09-27T10:31:56;1.30;;;1.10;;
12556;SDS011;6344;49.932;8.308;2022-09-27T10:34:29;1.40;;;1.10;;
12556;SDS011;6344;49.932;8.308;2022-09-27T10:37:03;1.20;;;1.00;;
12556;SDS011;6344;49.932;8.308;2022-09-27T10:39:32;1.93;;;1.30;;
12556;SDS011;6344;49.932;8.308;2022-09-27T10:41:59;2.80;;;1.20;;
12556;SDS011;6344;49.932;8.308;2022-09-27T10:44:26;1.93;;;1.50;;
12556;SDS011;6344;49.932;8.308;2022-09-27T10:46:54;1.37;;;1.27;;
12556;SDS011;6344;49.932;8.308;2022-09-27T10:49:25;1.30;;;1.13;;
12556;SDS011;6344;49.932;8.308;2022-09-27T10:51:54;1.50;;;1.40;;
12556;SDS011;6344;49.932;8.308;2022-09-27T10:54:24;1.60;;;1.50;;
12556;SDS011;6344;49.932;8.308;2022-09-27T10:56:54;1.40;;;1.30;;
12556;SDS011;6344;49.932;8.308;2022-09-27T10:59:23;1.57;;;1.33;;
12556;SDS011;6344;49.932;8.308;2022-09-27T11:01:50;1.37;;;1.10;;
12556;SDS011;6344;49.932;8.308;2022-09-27T11:04:19;1.60;;;1.37;;
12556;SDS011;6344;49.932;8.308;2022-09-27T11:06:50;1.70;;;1.60;;
12556;SDS011;6344;49.932;8.308;2022-09-27T11:09:18;1.40;;;1.30;;
12556;SDS011;6344;49.932;8.308;2022-09-27T11:11:50;1.57;;;1.47;;
12556;SDS011;6344;49.932;8.308;2022-09-27T11:14:32;1.93;;;1.83;;
12556;SDS011;6344;49.932;8.308;2022-09-27T11:17:03;2.00;;;1.53;;
12556;SDS011;6344;49.932;8.308;2022-09-27T11:19:42;2.33;;;1.57;;
12556;SDS011;6344;49.932;8.308;2022-09-27T11:22:22;2.43;;;1.67;;
12556;SDS011;6344;49.932;8.308;2022-09-27T11:25:03;2.00;;;1.80;;
12556;SDS011;6344;49.932;8.308;2022-09-27T11:27:41;3.87;;;1.80;;
12556;SDS011;6344;49.932;8.308;2022-09-27T11:30:16;2.10;;;1.90;;
12556;SDS011;6344;49.932;8.308;2022-09-27T11:32:50;1.97;;;1.87;;
12556;SDS011;6344;49.932;8.308;2022-09-27T11:35:35;3.30;;;1.30;;
12556;SDS011;6344;49.932;8.308;2022-09-27T11:38:15;3.90;;;1.90;;
12556;SDS011;6344;49.932;8.308;2022-09-27T11:41:01;1.37;;;1.27;;
12556;SDS011;6344;49.932;8.308;2022-09-27T11:43:49;3.47;;;1.97;;
12556;SDS011;6344;49.932;8.308;2022-09-27T11:46:29;2.50;;;1.97;;
12556;SDS011;6344;49.932;8.308;2022-09-27T11:49:05;2.03;;;1.70;;
12556;SDS011;6344;49.932;8.308;2022-09-27T11:51:48;3.37;;;1.80;;
12556;SDS011;6344;49.932;8.308;2022-09-27T11:54:33;5.60;;;1.83;;
12556;SDS011;6344;49.932;8.308;2022-09-27T11:57:12;1.70;;;1.47;;
12556;SDS011;6344;49.932;8.308;2022-09-27T11:59:54;2.47;;;1.80;;
12556;SDS011;6344;49.932;8.308;2022-09-27T12:02:42;1.70;;;1.60;;
12556;SDS011;6344;49.932;8.308;2022-09-27T12:05:23;2.43;;;1.60;;
12556;SDS011;6344;49.932;8.308;2022-09-27T12:08:01;2.43;;;1.63;;
12556;SDS011;6344;49.932;8.308;2022-09-27T12:10:39;1.70;;;1.53;;
12556;SDS011;6344;49.932;8.308;2022-09-27T12:13:11;2.07;;;1.97;;
12556;SDS011;6344;49.932;8.308;2022-09-27T12:15:41;1.90;;;1.80;;
12556;SDS011;6344;49.932;8.308;2022-09-27T12:18:11;2.13;;;1.57;;
12556;SDS011;6344;49.932;8.308;2022-09-27T12:20:41;3.47;;;2.00;;
12556;SDS011;6344;49.932;8.308;2022-09-27T12:23:10;1.50;;;1.40;;
12556;SDS011;6344;49.932;8.308;2022-09-27T12:25:44;2.60;;;1.63;;
12556;SDS011;6344;49.932;8.308;2022-09-27T12:28:17;2.90;;;2.50;;
12556;SDS011;6344;49.932;8.308;2022-09-27T12:30:52;1.63;;;1.53;;
12556;SDS011;6344;49.932;8.308;2022-09-27T12:33:25;1.93;;;1.80;;
12556;SDS011;6344;49.932;8.308;2022-09-27T12:35:58;3.60;;;1.93;;
12556;SDS011;6344;49.932;8.308;2022-09-27T12:38:31;2.03;;;1.40;;
12556;SDS011;6344;49.932;8.308;2022-09-27T12:41:05;1.97;;;1.40;;
12556;SDS011;6344;49.932;8.308;2022-09-27T12:43:35;3.23;;;1.97;;
12556;SDS011;6344;49.932;8.308;2022-09-27T12:46:06;2.07;;;1.60;;
12556;SDS011;6344;49.932;8.308;2022-09-27T12:48:43;1.80;;;1.70;;
12556;SDS011;6344;49.932;8.308;2022-09-27T12:51:15;3.37;;;2.03;;
12556;SDS011;6344;49.932;8.308;2022-09-27T12:53:48;2.53;;;2.33;;
12556;SDS011;6344;49.932;8.308;2022-09-27T12:56:32;1.57;;;1.47;;
12556;SDS011;6344;49.932;8.308;2022-09-27T12:59:20;1.63;;;1.20;;
12556;SDS011;6344;49.932;8.308;2022-09-27T13:02:23;1.20;;;1.10;;
12556;SDS011;6344;49.932;8.308;2022-09-27T13:05:06;1.40;;;1.30;;
12556;SDS011;6344;49.932;8.308;2022-09-27T13:07:49;2.50;;;1.20;;
12556;SDS011;6344;49.932;8.308;2022-09-27T13:13:20;1.20;;;1.00;;
12556;SDS011;6344;49.932;8.308;2022-09-27T13:15:50;1.37;;;1.03;;
12556;SDS011;6344;49.932;8.308;2022-09-27T13:18:48;1.40;;;0.90;;
12556;SDS011;6344;49.932;8.308;2022-09-27T13:36:18;1.60;;;1.20;;
12556;SDS011;6344;49.932;8.308;2022-09-27T13:39:13;1.53;;;1.17;;
12556;SDS011;6344;49.932;8.308;2022-09-27T13:41:53;1.30;;;1.20;;
12556;SDS011;6344;49.932;8.308;2022-09-27T13:44:30;1.60;;;1.37;;
12556;SDS011;6344;49.932;8.308;2022-09-27T13:47:13;1.50;;;1.40;;
12556;SDS011;6344;49.932;8.308;2022-09-27T13:49:52;1.63;;;1.40;;
12556;SDS011;6344;49.932;8.308;2022-09-27T13:52:24;1.73;;;1.63;;
12556;SDS011;6344;49.932;8.308;2022-09-27T13:54:59;1.60;;;1.50;;
12556;SDS011;6344;49.932;8.308;2022-09-27T13:57:47;1.57;;;1.47;;
12556;SDS011;6344;49.932;8.308;2022-09-27T14:00:19;1.60;;;1.50;;
12556;SDS011;6344;49.932;8.308;2022-09-27T14:02:53;1.70;;;1.60;;
12556;SDS011;6344;49.932;8.308;2022-09-27T14:05:26;2.23;;;1.43;;
12556;SDS011;6344;49.932;8.308;2022-09-27T14:07:59;2.83;;;1.90;;
12556;SDS011;6344;49.932;8.308;2022-09-27T14:10:28;2.43;;;1.37;;
12556;SDS011;6344;49.932;8.308;2022-09-27T14:12:56;1.63;;;1.53;;
12556;SDS011;6344;49.932;8.308;2022-09-27T14:15:26;3.43;;;1.87;;
12556;SDS011;6344;49.932;8.308;2022-09-27T14:17:54;2.07;;;1.83;;
12556;SDS011;6344;49.932;8.308;2022-09-27T14:20:37;2.17;;;1.60;;
12556;SDS011;6344;49.932;8.308;2022-09-27T14:23:10;2.17;;;1.60;;
12556;SDS011;6344;49.932;8.308;2022-09-27T14:25:43;2.13;;;1.50;;
12556;SDS011;6344;49.932;8.308;2022-09-27T14:28:18;1.60;;;1.50;;
12556;SDS011;6344;49.932;8.308;2022-09-27T14:30:46;1.90;;;1.80;;
12556;SDS011;6344;49.932;8.308;2022-09-27T14:33:25;1.70;;;1.60;;
12556;SDS011;6344;49.932;8.308;2022-09-27T14:35:55;1.60;;;1.50;;
12556;SDS011;6344;49.932;8.308;2022-09-27T14:38:39;1.90;;;1.20;;
12556;SDS011;6344;49.932;8.308;2022-09-27T14:41:07;1.40;;;1.30;;
12556;SDS011;6344;49.932;8.308;2022-09-27T14:43:35;3.17;;;1.97;;
12556;SDS011;6344;49.932;8.308;2022-09-27T14:46:22;1.50;;;1.40;;
12556;SDS011;6344;49.932;8.308;2022-09-27T14:48:51;2.73;;;1.80;;
12556;SDS011;6344;49.932;8.308;2022-09-27T14:51:20;2.53;;;2.33;;
12556;SDS011;6344;49.932;8.308;2022-09-27T14:53:53;2.43;;;1.70;;
12556;SDS011;6344;49.932;8.308;2022-09-27T14:56:23;1.80;;;1.70;;
12556;SDS011;6344;49.932;8.308;2022-09-27T14:58:53;2.97;;;2.13;;
12556;SDS011;6344;49.932;8.308;2022-09-27T15:01:26;2.00;;;1.90;;
12556;SDS011;6344;49.932;8.308;2022-09-27T15:03:54;2.60;;;2.50;;
12556;SDS011;6344;49.932;8.308;2022-09-27T15:06:23;2.80;;;2.60;;
12556;SDS011;6344;49.932;8.308;2022-09-27T15:08:50;2.80;;;2.60;;
12556;SDS011;6344;49.932;8.308;2022-09-27T15:11:18;2.17;;;2.07;;
12556;SDS011;6344;49.932;8.308;2022-09-27T15:13:45;3.20;;;2.10;;
12556;SDS011;6344;49.932;8.308;2022-09-27T15:16:16;2.17;;;2.07;;
12556;SDS011;6344;49.932;8.308;2022-09-27T15:18:46;2.60;;;2.40;;
12556;SDS011;6344;49.932;8.308;2022-09-27T15:21:15;2.90;;;2.60;;
12556;SDS011;6344;49.932;8.308;2022-09-27T15:23:55;3.07;;;2.87;;
12556;SDS011;6344;49.932;8.308;2022-09-27T15:26:24;2.67;;;2.47;;
12556;SDS011;6344;49.932;8.308;2022-09-27T15:28:59;2.53;;;2.23;;
12556;SDS011;6344;49.932;8.308;2022-09-27T15:31:30;2.87;;;2.57;;
12556;SDS011;6344;49.932;8.308;2022-09-27T15:33:59;3.67;;;3.30;;
12556;SDS011;6344;49.932;8.308;2022-09-27T15:39:25;2.73;;;2.53;;
12556;SDS011;6344;49.932;8.308;2022-09-27T15:42:01;2.63;;;2.43;;
12556;SDS011;6344;49.932;8.308;2022-09-27T15:44:35;2.90;;;2.70;;
12556;SDS011;6344;49.932;8.308;2022-09-27T15:47:03;2.63;;;2.43;;
12556;SDS011;6344;49.932;8.308;2022-09-27T15:49:30;2.50;;;2.20;;